sensor_id;sensor_type;location;lat;lon;timestamp;temperature;humidity
65374;SHT31;52070;53.760;9.678;2023-02-10T00:00:33;3.51;91.07
65374;SHT31;52070;53.760;9.678;2023-02-10T00:03:00;3.51;91.07
65374;SHT31;52070;53.760;9.678;2023-02-10T00:05:27;3.52;91.07
65374;SHT31;52070;53.760;9.678;2023-02-10T00:07:54;3.55;91.07
65374;SHT31;52070;53.760;9.678;2023-02-10T00:10:23;3.55;90.99
65374;SHT31;52070;53.760;9.678;2023-02-10T00:12:50;3.60;90.99
65374;SHT31;52070;53.760;9.678;2023-02-10T00:15:17;3.59;90.94
65374;SHT31;52070;53.760;9.678;2023-02-10T00:17:44;3.60;90.93
65374;SHT31;52070;53.760;9.678;2023-02-10T00:20:11;3.63;90.97
65374;SHT31;52070;53.760;9.678;2023-02-10T00:22:38;3.65;90.95
65374;SHT31;52070;53.760;9.678;2023-02-10T00:25:05;3.66;90.83
65374;SHT31;52070;53.760;9.678;2023-02-10T00:27:33;3.60;90.82
65374;SHT31;52070;53.760;9.678;2023-02-10T00:30:00;3.62;90.82
65374;SHT31;52070;53.760;9.678;2023-02-10T00:32:27;3.62;90.85
65374;SHT31;52070;53.760;9.678;2023-02-10T00:34:54;3.63;90.92
65374;SHT31;52070;53.760;9.678;2023-02-10T00:37:20;3.66;90.92
65374;SHT31;52070;53.760;9.678;2023-02-10T00:39:47;3.69;90.92
65374;SHT31;52070;53.760;9.678;2023-02-10T00:42:14;3.68;90.85
65374;SHT31;52070;53.760;9.678;2023-02-10T00:44:43;3.69;90.88
65374;SHT31;52070;53.760;9.678;2023-02-10T00:47:10;3.75;90.84
65374;SHT31;52070;53.760;9.678;2023-02-10T00:49:37;3.80;90.77
65374;SHT31;52070;53.760;9.678;2023-02-10T00:52:04;3.78;90.63
65374;SHT31;52070;53.760;9.678;2023-02-10T00:54:31;3.79;90.58
65374;SHT31;52070;53.760;9.678;2023-02-10T00:56:58;3.80;90.52
65374;SHT31;52070;53.760;9.678;2023-02-10T00:59:25;3.80;90.47
65374;SHT31;52070;53.760;9.678;2023-02-10T01:01:53;3.85;90.37
65374;SHT31;52070;53.760;9.678;2023-02-10T01:04:20;3.83;90.29
65374;SHT31;52070;53.760;9.678;2023-02-10T01:06:47;3.85;90.20
65374;SHT31;52070;53.760;9.678;2023-02-10T01:09:14;3.87;90.12
65374;SHT31;52070;53.760;9.678;2023-02-10T01:11:41;3.89;90.02
65374;SHT31;52070;53.760;9.678;2023-02-10T01:14:08;3.90;89.97
65374;SHT31;52070;53.760;9.678;2023-02-10T01:16:35;3.87;89.92
65374;SHT31;52070;53.760;9.678;2023-02-10T01:19:03;3.85;89.88
65374;SHT31;52070;53.760;9.678;2023-02-10T01:21:31;3.87;89.89
65374;SHT31;52070;53.760;9.678;2023-02-10T01:23:58;3.87;89.88
65374;SHT31;52070;53.760;9.678;2023-02-10T01:26:25;3.87;89.80
65374;SHT31;52070;53.760;9.678;2023-02-10T01:28:52;3.87;89.72
65374;SHT31;52070;53.760;9.678;2023-02-10T01:31:20;3.80;89.66
65374;SHT31;52070;53.760;9.678;2023-02-10T01:33:50;3.79;89.67
65374;SHT31;52070;53.760;9.678;2023-02-10T01:36:21;3.76;89.71
65374;SHT31;52070;53.760;9.678;2023-02-10T01:38:48;3.72;89.80
65374;SHT31;52070;53.760;9.678;2023-02-10T01:41:17;3.68;89.87
65374;SHT31;52070;53.760;9.678;2023-02-10T01:43:56;3.73;89.93
65374;SHT31;52070;53.760;9.678;2023-02-10T01:46:25;3.66;89.94
65374;SHT31;52070;53.760;9.678;2023-02-10T01:48:52;3.68;89.93
65374;SHT31;52070;53.760;9.678;2023-02-10T01:51:25;3.66;89.92
65374;SHT31;52070;53.760;9.678;2023-02-10T01:53:56;3.63;89.94
65374;SHT31;52070;53.760;9.678;2023-02-10T01:56:23;3.62;89.95
65374;SHT31;52070;53.760;9.678;2023-02-10T01:58:50;3.60;89.94
65374;SHT31;52070;53.760;9.678;2023-02-10T02:01:17;3.54;90.06
65374;SHT31;52070;53.760;9.678;2023-02-10T02:03:44;3.55;90.23
65374;SHT31;52070;53.760;9.678;2023-02-10T02:06:11;3.54;90.32
65374;SHT31;52070;53.760;9.678;2023-02-10T02:08:40;3.51;90.35
65374;SHT31;52070;53.760;9.678;2023-02-10T02:11:16;3.54;90.39
65374;SHT31;52070;53.760;9.678;2023-02-10T02:13:55;3.59;90.41
65374;SHT31;52070;53.760;9.678;2023-02-10T02:16:43;3.59;90.38
65374;SHT31;52070;53.760;9.678;2023-02-10T02:19:24;3.56;90.41
65374;SHT31;52070;53.760;9.678;2023-02-10T02:25:19;3.56;90.37
65374;SHT31;52070;53.760;9.678;2023-02-10T02:27:59;3.52;90.50
65374;SHT31;52070;53.760;9.678;2023-02-10T02:30:46;3.52;90.64
65374;SHT31;52070;53.760;9.678;2023-02-10T02:33:22;3.49;90.69
65374;SHT31;52070;53.760;9.678;2023-02-10T02:35:53;3.51;90.72
65374;SHT31;52070;53.760;9.678;2023-02-10T02:38:22;3.49;90.69
65374;SHT31;52070;53.760;9.678;2023-02-10T02:40:49;3.46;90.79
65374;SHT31;52070;53.760;9.678;2023-02-10T02:43:17;3.45;90.82
65374;SHT31;52070;53.760;9.678;2023-02-10T02:45:50;3.48;90.98
65374;SHT31;52070;53.760;9.678;2023-02-10T02:48:32;3.46;90.92
65374;SHT31;52070;53.760;9.678;2023-02-10T02:51:05;3.42;90.89
65374;SHT31;52070;53.760;9.678;2023-02-10T02:53:39;3.40;90.87
65374;SHT31;52070;53.760;9.678;2023-02-10T02:56:16;3.46;90.96
65374;SHT31;52070;53.760;9.678;2023-02-10T02:58:51;3.39;90.91
65374;SHT31;52070;53.760;9.678;2023-02-10T03:01:24;3.35;90.90
65374;SHT31;52070;53.760;9.678;2023-02-10T03:03:54;3.28;90.97
65374;SHT31;52070;53.760;9.678;2023-02-10T03:06:21;3.31;91.13
65374;SHT31;52070;53.760;9.678;2023-02-10T03:08:48;3.26;91.22
65374;SHT31;52070;53.760;9.678;2023-02-10T03:11:16;3.29;91.27
65374;SHT31;52070;53.760;9.678;2023-02-10T03:13:43;3.28;91.38
65374;SHT31;52070;53.760;9.678;2023-02-10T03:16:10;3.24;91.46
65374;SHT31;52070;53.760;9.678;2023-02-10T03:18:37;3.26;91.53
65374;SHT31;52070;53.760;9.678;2023-02-10T03:21:05;3.25;91.53
65374;SHT31;52070;53.760;9.678;2023-02-10T03:23:32;3.24;91.55
65374;SHT31;52070;53.760;9.678;2023-02-10T03:26:00;3.24;91.56
65374;SHT31;52070;53.760;9.678;2023-02-10T03:28:27;3.22;91.68
65374;SHT31;52070;53.760;9.678;2023-02-10T03:30:54;3.22;91.67
65374;SHT31;52070;53.760;9.678;2023-02-10T03:33:22;3.18;91.66
65374;SHT31;52070;53.760;9.678;2023-02-10T03:35:49;3.24;91.69
65374;SHT31;52070;53.760;9.678;2023-02-10T03:38:17;3.16;91.67
65374;SHT31;52070;53.760;9.678;2023-02-10T03:40:48;3.16;91.72
65374;SHT31;52070;53.760;9.678;2023-02-10T03:43:15;3.14;91.82
65374;SHT31;52070;53.760;9.678;2023-02-10T03:45:42;3.09;91.88
65374;SHT31;52070;53.760;9.678;2023-02-10T03:48:09;3.09;91.89
65374;SHT31;52070;53.760;9.678;2023-02-10T03:50:36;3.11;91.92
65374;SHT31;52070;53.760;9.678;2023-02-10T03:53:03;3.05;91.94
65374;SHT31;52070;53.760;9.678;2023-02-10T03:55:32;3.04;91.94
65374;SHT31;52070;53.760;9.678;2023-02-10T03:57:59;2.97;91.96
65374;SHT31;52070;53.760;9.678;2023-02-10T04:00:27;2.93;92.10
65374;SHT31;52070;53.760;9.678;2023-02-10T04:02:54;2.94;92.18
65374;SHT31;52070;53.760;9.678;2023-02-10T04:05:21;2.93;92.30
65374;SHT31;52070;53.760;9.678;2023-02-10T04:07:48;2.94;92.50
65374;SHT31;52070;53.760;9.678;2023-02-10T04:10:15;2.94;92.53
65374;SHT31;52070;53.760;9.678;2023-02-10T04:12:43;2.95;92.57
65374;SHT31;52070;53.760;9.678;2023-02-10T04:15:10;2.93;92.60
65374;SHT31;52070;53.760;9.678;2023-02-10T04:17:37;2.93;92.58
65374;SHT31;52070;53.760;9.678;2023-02-10T04:20:04;2.93;92.56
65374;SHT31;52070;53.760;9.678;2023-02-10T04:22:31;2.87;92.61
65374;SHT31;52070;53.760;9.678;2023-02-10T04:24:58;2.83;92.59
65374;SHT31;52070;53.760;9.678;2023-02-10T04:27:25;2.81;92.65
65374;SHT31;52070;53.760;9.678;2023-02-10T04:29:54;2.83;92.71
65374;SHT31;52070;53.760;9.678;2023-02-10T04:32:21;2.76;92.74
65374;SHT31;52070;53.760;9.678;2023-02-10T04:34:48;2.79;92.73
65374;SHT31;52070;53.760;9.678;2023-02-10T04:37:15;2.80;92.77
65374;SHT31;52070;53.760;9.678;2023-02-10T04:39:42;2.77;92.80
65374;SHT31;52070;53.760;9.678;2023-02-10T04:42:09;2.79;92.88
65374;SHT31;52070;53.760;9.678;2023-02-10T04:44:36;2.77;92.98
65374;SHT31;52070;53.760;9.678;2023-02-10T04:47:04;2.79;93.02
65374;SHT31;52070;53.760;9.678;2023-02-10T04:49:31;2.77;93.03
65374;SHT31;52070;53.760;9.678;2023-02-10T04:51:58;2.76;93.04
65374;SHT31;52070;53.760;9.678;2023-02-10T04:54:25;2.74;93.07
65374;SHT31;52070;53.760;9.678;2023-02-10T04:56:52;2.74;93.12
65374;SHT31;52070;53.760;9.678;2023-02-10T04:59:19;2.76;93.08
65374;SHT31;52070;53.760;9.678;2023-02-10T05:01:46;2.73;93.12
65374;SHT31;52070;53.760;9.678;2023-02-10T05:04:15;2.74;93.12
65374;SHT31;52070;53.760;9.678;2023-02-10T05:06:41;2.79;93.08
65374;SHT31;52070;53.760;9.678;2023-02-10T05:09:08;2.76;93.10
65374;SHT31;52070;53.760;9.678;2023-02-10T05:11:35;2.77;93.09
65374;SHT31;52070;53.760;9.678;2023-02-10T05:14:02;2.77;93.03
65374;SHT31;52070;53.760;9.678;2023-02-10T05:16:29;2.73;93.03
65374;SHT31;52070;53.760;9.678;2023-02-10T05:18:56;2.73;93.05
65374;SHT31;52070;53.760;9.678;2023-02-10T05:21:24;2.73;93.06
65374;SHT31;52070;53.760;9.678;2023-02-10T05:23:51;2.73;93.06
65374;SHT31;52070;53.760;9.678;2023-02-10T05:26:18;2.71;93.08
65374;SHT31;52070;53.760;9.678;2023-02-10T05:28:45;2.73;93.04
65374;SHT31;52070;53.760;9.678;2023-02-10T05:31:12;2.70;93.01
65374;SHT31;52070;53.760;9.678;2023-02-10T05:33:39;2.71;93.03
65374;SHT31;52070;53.760;9.678;2023-02-10T05:36:07;2.70;93.04
65374;SHT31;52070;53.760;9.678;2023-02-10T05:38:35;2.67;93.06
65374;SHT31;52070;53.760;9.678;2023-02-10T05:41:02;2.68;93.09
65374;SHT31;52070;53.760;9.678;2023-02-10T05:43:29;2.68;93.10
65374;SHT31;52070;53.760;9.678;2023-02-10T05:45:56;2.70;93.08
65374;SHT31;52070;53.760;9.678;2023-02-10T05:48:23;2.67;93.06
65374;SHT31;52070;53.760;9.678;2023-02-10T05:50:50;2.63;93.08
65374;SHT31;52070;53.760;9.678;2023-02-10T05:53:17;2.65;93.04
65374;SHT31;52070;53.760;9.678;2023-02-10T05:55:46;2.60;93.05
65374;SHT31;52070;53.760;9.678;2023-02-10T05:58:13;2.65;93.08
65374;SHT31;52070;53.760;9.678;2023-02-10T06:00:40;2.61;93.05
65374;SHT31;52070;53.760;9.678;2023-02-10T06:03:08;2.60;93.08
65374;SHT31;52070;53.760;9.678;2023-02-10T06:05:35;2.61;93.09
65374;SHT31;52070;53.760;9.678;2023-02-10T06:08:02;2.60;93.14
65374;SHT31;52070;53.760;9.678;2023-02-10T06:10:29;2.60;93.19
65374;SHT31;52070;53.760;9.678;2023-02-10T06:12:57;2.64;93.20
65374;SHT31;52070;53.760;9.678;2023-02-10T06:15:24;2.63;93.20
65374;SHT31;52070;53.760;9.678;2023-02-10T06:17:51;2.60;93.15
65374;SHT31;52070;53.760;9.678;2023-02-10T06:20:18;2.57;93.17
65374;SHT31;52070;53.760;9.678;2023-02-10T06:22:45;2.52;93.22
65374;SHT31;52070;53.760;9.678;2023-02-10T06:25:11;2.54;93.29
65374;SHT31;52070;53.760;9.678;2023-02-10T06:27:38;2.54;93.41
65374;SHT31;52070;53.760;9.678;2023-02-10T06:30:08;2.54;93.39
65374;SHT31;52070;53.760;9.678;2023-02-10T06:32:36;2.56;93.44
65374;SHT31;52070;53.760;9.678;2023-02-10T06:35:03;2.57;93.50
65374;SHT31;52070;53.760;9.678;2023-02-10T06:37:30;2.53;93.54
65374;SHT31;52070;53.760;9.678;2023-02-10T06:39:57;2.53;93.58
65374;SHT31;52070;53.760;9.678;2023-02-10T06:42:24;2.53;93.62
65374;SHT31;52070;53.760;9.678;2023-02-10T06:44:51;2.50;93.65
65374;SHT31;52070;53.760;9.678;2023-02-10T06:47:19;2.47;93.69
65374;SHT31;52070;53.760;9.678;2023-02-10T06:49:46;2.49;93.73
65374;SHT31;52070;53.760;9.678;2023-02-10T06:52:13;2.53;93.77
65374;SHT31;52070;53.760;9.678;2023-02-10T06:54:40;2.56;93.75
65374;SHT31;52070;53.760;9.678;2023-02-10T06:57:07;2.54;93.75
65374;SHT31;52070;53.760;9.678;2023-02-10T06:59:34;2.54;93.71
65374;SHT31;52070;53.760;9.678;2023-02-10T07:02:01;2.54;93.68
65374;SHT31;52070;53.760;9.678;2023-02-10T07:04:30;2.52;93.64
65374;SHT31;52070;53.760;9.678;2023-02-10T07:06:58;2.57;93.61
65374;SHT31;52070;53.760;9.678;2023-02-10T07:09:25;2.56;93.60
65374;SHT31;52070;53.760;9.678;2023-02-10T07:11:51;2.56;93.56
65374;SHT31;52070;53.760;9.678;2023-02-10T07:14:18;2.54;93.64
65374;SHT31;52070;53.760;9.678;2023-02-10T07:16:45;2.57;93.63
65374;SHT31;52070;53.760;9.678;2023-02-10T07:19:13;2.60;93.65
65374;SHT31;52070;53.760;9.678;2023-02-10T07:21:41;2.60;93.62
65374;SHT31;52070;53.760;9.678;2023-02-10T07:24:08;2.63;93.59
65374;SHT31;52070;53.760;9.678;2023-02-10T07:26:36;2.61;93.54
65374;SHT31;52070;53.760;9.678;2023-02-10T07:29:03;2.65;93.52
65374;SHT31;52070;53.760;9.678;2023-02-10T07:31:30;2.68;93.50
65374;SHT31;52070;53.760;9.678;2023-02-10T07:34:00;2.70;93.43
65374;SHT31;52070;53.760;9.678;2023-02-10T07:36:27;2.74;93.45
65374;SHT31;52070;53.760;9.678;2023-02-10T07:38:55;2.74;93.40
65374;SHT31;52070;53.760;9.678;2023-02-10T07:41:22;2.77;93.35
65374;SHT31;52070;53.760;9.678;2023-02-10T07:43:49;2.77;93.36
65374;SHT31;52070;53.760;9.678;2023-02-10T07:46:16;2.80;93.31
65374;SHT31;52070;53.760;9.678;2023-02-10T07:48:45;2.85;93.29
65374;SHT31;52070;53.760;9.678;2023-02-10T07:51:12;2.90;93.24
65374;SHT31;52070;53.760;9.678;2023-02-10T07:53:39;2.91;93.16
65374;SHT31;52070;53.760;9.678;2023-02-10T07:56:09;2.91;93.13
65374;SHT31;52070;53.760;9.678;2023-02-10T07:58:37;2.95;93.00
65374;SHT31;52070;53.760;9.678;2023-02-10T08:01:07;2.98;92.95
65374;SHT31;52070;53.760;9.678;2023-02-10T08:03:35;2.98;92.93
65374;SHT31;52070;53.760;9.678;2023-02-10T08:06:03;3.01;92.93
65374;SHT31;52070;53.760;9.678;2023-02-10T08:08:30;3.00;92.91
65374;SHT31;52070;53.760;9.678;2023-02-10T08:10:57;3.01;92.86
65374;SHT31;52070;53.760;9.678;2023-02-10T08:13:25;3.07;92.86
65374;SHT31;52070;53.760;9.678;2023-02-10T08:15:53;3.08;92.88
65374;SHT31;52070;53.760;9.678;2023-02-10T08:18:20;3.14;92.89
65374;SHT31;52070;53.760;9.678;2023-02-10T08:20:47;3.18;92.94
65374;SHT31;52070;53.760;9.678;2023-02-10T08:23:15;3.15;92.86
65374;SHT31;52070;53.760;9.678;2023-02-10T08:25:43;3.21;92.81
65374;SHT31;52070;53.760;9.678;2023-02-10T08:28:10;3.29;92.82
65374;SHT31;52070;53.760;9.678;2023-02-10T08:30:39;3.35;92.79
65374;SHT31;52070;53.760;9.678;2023-02-10T08:33:06;3.35;92.68
65374;SHT31;52070;53.760;9.678;2023-02-10T08:35:34;3.34;92.54
65374;SHT31;52070;53.760;9.678;2023-02-10T08:38:02;3.38;92.44
65374;SHT31;52070;53.760;9.678;2023-02-10T08:40:29;3.52;92.35
65374;SHT31;52070;53.760;9.678;2023-02-10T08:42:56;3.56;92.33
65374;SHT31;52070;53.760;9.678;2023-02-10T08:45:23;3.65;92.19
65374;SHT31;52070;53.760;9.678;2023-02-10T08:47:51;3.66;92.01
65374;SHT31;52070;53.760;9.678;2023-02-10T08:50:18;3.59;91.82
65374;SHT31;52070;53.760;9.678;2023-02-10T08:52:45;3.59;91.69
65374;SHT31;52070;53.760;9.678;2023-02-10T08:55:12;3.56;91.64
65374;SHT31;52070;53.760;9.678;2023-02-10T08:57:39;3.56;91.69
65374;SHT31;52070;53.760;9.678;2023-02-10T09:00:07;3.60;91.65
65374;SHT31;52070;53.760;9.678;2023-02-10T09:02:34;3.63;91.67
65374;SHT31;52070;53.760;9.678;2023-02-10T09:05:03;3.62;91.67
65374;SHT31;52070;53.760;9.678;2023-02-10T09:07:30;3.62;91.61
65374;SHT31;52070;53.760;9.678;2023-02-10T09:09:57;3.68;91.52
65374;SHT31;52070;53.760;9.678;2023-02-10T09:12:24;3.68;91.49
65374;SHT31;52070;53.760;9.678;2023-02-10T09:14:51;3.62;91.36
65374;SHT31;52070;53.760;9.678;2023-02-10T09:17:18;3.66;91.30
65374;SHT31;52070;53.760;9.678;2023-02-10T09:19:44;3.63;91.23
65374;SHT31;52070;53.760;9.678;2023-02-10T09:22:13;3.62;91.02
65374;SHT31;52070;53.760;9.678;2023-02-10T09:24:40;3.58;90.95
65374;SHT31;52070;53.760;9.678;2023-02-10T09:27:12;3.55;90.93
65374;SHT31;52070;53.760;9.678;2023-02-10T09:29:39;3.58;90.90
65374;SHT31;52070;53.760;9.678;2023-02-10T09:32:06;3.63;90.98
65374;SHT31;52070;53.760;9.678;2023-02-10T09:34:33;3.60;90.93
65374;SHT31;52070;53.760;9.678;2023-02-10T09:37:00;3.55;90.94
65374;SHT31;52070;53.760;9.678;2023-02-10T09:39:29;3.59;91.03
65374;SHT31;52070;53.760;9.678;2023-02-10T09:42:03;3.63;91.05
65374;SHT31;52070;53.760;9.678;2023-02-10T09:44:35;3.72;91.04
65374;SHT31;52070;53.760;9.678;2023-02-10T09:47:20;3.72;90.95
65374;SHT31;52070;53.760;9.678;2023-02-10T09:49:56;3.73;90.87
65374;SHT31;52070;53.760;9.678;2023-02-10T09:52:35;3.76;90.85
65374;SHT31;52070;53.760;9.678;2023-02-10T09:55:13;3.87;90.86
65374;SHT31;52070;53.760;9.678;2023-02-10T09:57:43;3.94;90.76
65374;SHT31;52070;53.760;9.678;2023-02-10T10:00:20;4.03;90.60
65374;SHT31;52070;53.760;9.678;2023-02-10T10:02:51;4.10;90.26
65374;SHT31;52070;53.760;9.678;2023-02-10T10:05:23;4.16;89.93
65374;SHT31;52070;53.760;9.678;2023-02-10T10:07:57;4.09;89.63
65374;SHT31;52070;53.760;9.678;2023-02-10T10:10:31;4.13;89.59
65374;SHT31;52070;53.760;9.678;2023-02-10T10:12:58;4.20;89.63
65374;SHT31;52070;53.760;9.678;2023-02-10T10:15:31;4.13;89.36
65374;SHT31;52070;53.760;9.678;2023-02-10T10:18:10;4.03;89.36
65374;SHT31;52070;53.760;9.678;2023-02-10T10:20:49;4.03;89.42
65374;SHT31;52070;53.760;9.678;2023-02-10T10:23:29;4.06;89.56
65374;SHT31;52070;53.760;9.678;2023-02-10T10:26:23;4.07;89.60
65374;SHT31;52070;53.760;9.678;2023-02-10T10:29:02;4.16;89.61
65374;SHT31;52070;53.760;9.678;2023-02-10T10:31:32;4.20;89.57
65374;SHT31;52070;53.760;9.678;2023-02-10T10:34:08;4.23;89.50
65374;SHT31;52070;53.760;9.678;2023-02-10T10:36:37;4.30;89.43
65374;SHT31;52070;53.760;9.678;2023-02-10T10:39:11;4.40;89.37
65374;SHT31;52070;53.760;9.678;2023-02-10T10:41:42;4.37;89.10
65374;SHT31;52070;53.760;9.678;2023-02-10T10:44:12;4.47;89.05
65374;SHT31;52070;53.760;9.678;2023-02-10T10:46:45;4.55;88.81
65374;SHT31;52070;53.760;9.678;2023-02-10T10:49:14;4.65;88.79
65374;SHT31;52070;53.760;9.678;2023-02-10T10:51:41;4.76;88.72
65374;SHT31;52070;53.760;9.678;2023-02-10T10:54:14;4.79;88.19
65374;SHT31;52070;53.760;9.678;2023-02-10T10:56:45;4.75;88.08
65374;SHT31;52070;53.760;9.678;2023-02-10T10:59:16;4.79;88.14
65374;SHT31;52070;53.760;9.678;2023-02-10T11:01:46;4.76;88.13
65374;SHT31;52070;53.760;9.678;2023-02-10T11:04:16;4.81;88.28
65374;SHT31;52070;53.760;9.678;2023-02-10T11:06:46;4.89;88.27
65374;SHT31;52070;53.760;9.678;2023-02-10T11:09:22;4.96;88.18
65374;SHT31;52070;53.760;9.678;2023-02-10T11:11:53;4.99;88.15
65374;SHT31;52070;53.760;9.678;2023-02-10T11:14:22;5.00;88.07
65374;SHT31;52070;53.760;9.678;2023-02-10T11:16:52;5.00;88.13
65374;SHT31;52070;53.760;9.678;2023-02-10T11:19:22;5.02;88.14
65374;SHT31;52070;53.760;9.678;2023-02-10T11:21:50;5.18;88.22
65374;SHT31;52070;53.760;9.678;2023-02-10T11:24:21;5.18;87.90
65374;SHT31;52070;53.760;9.678;2023-02-10T11:27:00;5.13;87.71
65374;SHT31;52070;53.760;9.678;2023-02-10T11:29:30;5.23;87.73
65374;SHT31;52070;53.760;9.678;2023-02-10T11:31:57;5.32;87.66
65374;SHT31;52070;53.760;9.678;2023-02-10T11:34:28;5.43;87.58
65374;SHT31;52070;53.760;9.678;2023-02-10T11:36:57;5.59;87.30
65374;SHT31;52070;53.760;9.678;2023-02-10T11:39:28;5.66;86.94
65374;SHT31;52070;53.760;9.678;2023-02-10T11:41:58;5.69;86.41
65374;SHT31;52070;53.760;9.678;2023-02-10T11:44:33;5.77;86.30
65374;SHT31;52070;53.760;9.678;2023-02-10T11:47:01;5.86;85.93
65374;SHT31;52070;53.760;9.678;2023-02-10T11:49:30;6.00;85.40
65374;SHT31;52070;53.760;9.678;2023-02-10T11:52:00;6.12;84.95
65374;SHT31;52070;53.760;9.678;2023-02-10T11:54:28;6.36;84.96
65374;SHT31;52070;53.760;9.678;2023-02-10T11:57:11;6.45;84.05
65374;SHT31;52070;53.760;9.678;2023-02-10T12:00:07;6.29;83.10
65374;SHT31;52070;53.760;9.678;2023-02-10T12:02:55;6.31;83.12
65374;SHT31;52070;53.760;9.678;2023-02-10T12:05:28;6.50;83.23
65374;SHT31;52070;53.760;9.678;2023-02-10T12:08:11;6.55;82.44
65374;SHT31;52070;53.760;9.678;2023-02-10T12:10:45;6.71;82.17
65374;SHT31;52070;53.760;9.678;2023-02-10T12:13:22;6.80;81.74
65374;SHT31;52070;53.760;9.678;2023-02-10T12:16:01;6.90;81.31
65374;SHT31;52070;53.760;9.678;2023-02-10T12:18:45;7.04;81.13
65374;SHT31;52070;53.760;9.678;2023-02-10T12:21:26;6.96;80.55
65374;SHT31;52070;53.760;9.678;2023-02-10T12:24:09;7.06;80.61
65374;SHT31;52070;53.760;9.678;2023-02-10T12:26:44;7.06;80.00
65374;SHT31;52070;53.760;9.678;2023-02-10T12:29:25;6.89;79.73
65374;SHT31;52070;53.760;9.678;2023-02-10T12:32:00;6.86;79.78
65374;SHT31;52070;53.760;9.678;2023-02-10T12:34:50;6.92;79.72
65374;SHT31;52070;53.760;9.678;2023-02-10T12:37:29;7.01;79.55
65374;SHT31;52070;53.760;9.678;2023-02-10T12:40:16;7.17;78.75
65374;SHT31;52070;53.760;9.678;2023-02-10T12:42:52;7.20;78.80
65374;SHT31;52070;53.760;9.678;2023-02-10T12:45:28;7.50;78.62
65374;SHT31;52070;53.760;9.678;2023-02-10T12:48:05;7.78;77.27
65374;SHT31;52070;53.760;9.678;2023-02-10T12:50:43;7.81;76.60
65374;SHT31;52070;53.760;9.678;2023-02-10T12:53:17;7.51;76.99
65374;SHT31;52070;53.760;9.678;2023-02-10T12:55:51;7.48;77.17
65374;SHT31;52070;53.760;9.678;2023-02-10T12:58:25;7.43;77.64
65374;SHT31;52070;53.760;9.678;2023-02-10T13:01:01;7.52;77.64
65374;SHT31;52070;53.760;9.678;2023-02-10T13:03:33;7.75;77.10
65374;SHT31;52070;53.760;9.678;2023-02-10T13:06:16;7.86;75.86
65374;SHT31;52070;53.760;9.678;2023-02-10T13:08:48;7.62;76.13
65374;SHT31;52070;53.760;9.678;2023-02-10T13:11:22;7.64;76.16
65374;SHT31;52070;53.760;9.678;2023-02-10T13:13:52;7.77;75.64
65374;SHT31;52070;53.760;9.678;2023-02-10T13:16:25;7.67;75.40
65374;SHT31;52070;53.760;9.678;2023-02-10T13:18:58;7.57;75.26
65374;SHT31;52070;53.760;9.678;2023-02-10T13:21:33;7.64;75.63
65374;SHT31;52070;53.760;9.678;2023-02-10T13:24:06;7.72;75.62
65374;SHT31;52070;53.760;9.678;2023-02-10T13:26:45;7.89;75.74
65374;SHT31;52070;53.760;9.678;2023-02-10T13:29:18;7.95;74.84
65374;SHT31;52070;53.760;9.678;2023-02-10T13:34:41;7.75;74.71
65374;SHT31;52070;53.760;9.678;2023-02-10T13:37:12;7.72;74.56
65374;SHT31;52070;53.760;9.678;2023-02-10T13:39:49;7.83;74.04
65374;SHT31;52070;53.760;9.678;2023-02-10T13:42:23;7.70;73.80
65374;SHT31;52070;53.760;9.678;2023-02-10T13:44:57;7.58;74.18
65374;SHT31;52070;53.760;9.678;2023-02-10T13:47:29;7.81;74.42
65374;SHT31;52070;53.760;9.678;2023-02-10T13:50:00;7.91;73.31
65374;SHT31;52070;53.760;9.678;2023-02-10T13:52:29;8.19;72.66
65374;SHT31;52070;53.760;9.678;2023-02-10T13:55:00;8.25;71.76
65374;SHT31;52070;53.760;9.678;2023-02-10T13:57:30;8.30;71.12
65374;SHT31;52070;53.760;9.678;2023-02-10T14:00:16;8.40;71.31
65374;SHT31;52070;53.760;9.678;2023-02-10T14:02:44;8.50;71.00
65374;SHT31;52070;53.760;9.678;2023-02-10T14:05:24;8.52;70.19
65374;SHT31;52070;53.760;9.678;2023-02-10T14:07:51;8.53;70.97
65374;SHT31;52070;53.760;9.678;2023-02-10T14:10:35;8.45;70.30
65374;SHT31;52070;53.760;9.678;2023-02-10T14:13:04;8.28;71.08
65374;SHT31;52070;53.760;9.678;2023-02-10T14:15:36;8.25;70.85
65374;SHT31;52070;53.760;9.678;2023-02-10T14:18:22;8.28;71.00
65374;SHT31;52070;53.760;9.678;2023-02-10T14:20:56;8.35;70.32
65374;SHT31;52070;53.760;9.678;2023-02-10T14:23:24;8.40;71.03
65374;SHT31;52070;53.760;9.678;2023-02-10T14:25:55;8.52;70.26
65374;SHT31;52070;53.760;9.678;2023-02-10T14:28:25;8.32;70.46
65374;SHT31;52070;53.760;9.678;2023-02-10T14:30:55;8.07;71.10
65374;SHT31;52070;53.760;9.678;2023-02-10T14:33:26;7.83;72.20
65374;SHT31;52070;53.760;9.678;2023-02-10T14:35:56;8.06;72.30
65374;SHT31;52070;53.760;9.678;2023-02-10T14:38:26;8.25;71.62
65374;SHT31;52070;53.760;9.678;2023-02-10T14:40:54;8.40;71.71
65374;SHT31;52070;53.760;9.678;2023-02-10T14:43:26;8.43;71.28
65374;SHT31;52070;53.760;9.678;2023-02-10T14:45:57;8.33;71.17
65374;SHT31;52070;53.760;9.678;2023-02-10T14:48:26;7.99;71.63
65374;SHT31;52070;53.760;9.678;2023-02-10T14:51:03;7.98;72.22
65374;SHT31;52070;53.760;9.678;2023-02-10T14:53:33;7.77;72.46
65374;SHT31;52070;53.760;9.678;2023-02-10T14:56:03;7.93;73.01
65374;SHT31;52070;53.760;9.678;2023-02-10T14:58:30;7.96;72.86
65374;SHT31;52070;53.760;9.678;2023-02-10T15:01:02;7.98;72.36
65374;SHT31;52070;53.760;9.678;2023-02-10T15:03:31;7.96;72.77
65374;SHT31;52070;53.760;9.678;2023-02-10T15:05:58;7.89;72.73
65374;SHT31;52070;53.760;9.678;2023-02-10T15:08:33;7.75;73.24
65374;SHT31;52070;53.760;9.678;2023-02-10T15:11:02;7.82;73.28
65374;SHT31;52070;53.760;9.678;2023-02-10T15:13:33;7.58;73.46
65374;SHT31;52070;53.760;9.678;2023-02-10T15:16:04;7.58;73.88
65374;SHT31;52070;53.760;9.678;2023-02-10T15:18:33;7.43;74.11
65374;SHT31;52070;53.760;9.678;2023-02-10T15:21:05;7.19;74.45
65374;SHT31;52070;53.760;9.678;2023-02-10T15:23:48;7.00;75.13
65374;SHT31;52070;53.760;9.678;2023-02-10T15:26:18;7.01;75.25
65374;SHT31;52070;53.760;9.678;2023-02-10T15:28:58;6.93;75.62
65374;SHT31;52070;53.760;9.678;2023-02-10T15:31:27;6.86;75.99
65374;SHT31;52070;53.760;9.678;2023-02-10T15:33:55;6.75;76.38
65374;SHT31;52070;53.760;9.678;2023-02-10T15:36:24;6.71;76.65
65374;SHT31;52070;53.760;9.678;2023-02-10T15:38:58;6.59;77.06
65374;SHT31;52070;53.760;9.678;2023-02-10T15:41:30;6.65;77.22
65374;SHT31;52070;53.760;9.678;2023-02-10T15:43:57;6.66;77.11
65374;SHT31;52070;53.760;9.678;2023-02-10T15:46:27;6.57;76.94
65374;SHT31;52070;53.760;9.678;2023-02-10T15:49:05;6.56;77.23
65374;SHT31;52070;53.760;9.678;2023-02-10T15:51:32;6.53;77.28
65374;SHT31;52070;53.760;9.678;2023-02-10T15:54:04;6.55;77.38
65374;SHT31;52070;53.760;9.678;2023-02-10T15:56:30;6.52;77.32
65374;SHT31;52070;53.760;9.678;2023-02-10T15:58:57;6.49;77.69
65374;SHT31;52070;53.760;9.678;2023-02-10T16:01:24;6.50;77.72
65374;SHT31;52070;53.760;9.678;2023-02-10T16:03:51;6.48;77.82
65374;SHT31;52070;53.760;9.678;2023-02-10T16:06:19;6.39;77.92
65374;SHT31;52070;53.760;9.678;2023-02-10T16:08:47;6.42;78.08